Terminal Aerodrome Forecast
Issued by NWS Portland, OR

Home | Current Version | Previous Version | Text Only | Print | Product List | Glossary On
Versions: 1 2 3 4 5 6 7 8 9 10 11 12 13 14 15 16 17 18 19 20 21 22 23 24 25 26 27 28 29 30 31 32 33 34 35 36 37 38
000
FTUS46 KPQR 172320
TAFTTD
TAF
KTTD 172320Z 1800/1824 VRB03KT P6SM SCT022 OVC035
     FM180700 VRB03KT 6SM -RA BR BKN022 OVC035
     FM181600 22006KT 5SM -RA BR BKN015 OVC025=

USA.gov is the U.S. government's official web portal to all federal, state and local government web resources and services.